createdAt,value
2018-12-17T00:00:46.422Z,30.62
2018-12-17T00:03:13.827Z,31.07
2018-12-17T00:05:41.845Z,27.77
2018-12-17T00:08:09.551Z,27.40
2018-12-17T00:10:36.961Z,29.40
2018-12-17T00:13:04.374Z,30.13
2018-12-17T00:15:31.794Z,31.95
2018-12-17T00:17:59.220Z,29.50
2018-12-17T00:20:26.646Z,31.20
2018-12-17T00:22:54.070Z,30.62
2018-12-17T00:25:21.473Z,31.70
2018-12-17T00:27:48.888Z,29.20
2018-12-17T00:30:16.307Z,28.73
2018-12-17T00:32:43.711Z,27.73
2018-12-17T00:35:11.146Z,28.70
2018-12-17T00:37:38.548Z,28.02
2018-12-17T00:40:07.064Z,28.60
2018-12-17T00:42:34.467Z,32.10
2018-12-17T00:45:01.883Z,32.25
2018-12-17T00:47:29.376Z,31.80
2018-12-17T00:49:56.794Z,31.67
2018-12-17T00:52:24.232Z,29.20
2018-12-17T00:54:51.637Z,28.53
2018-12-17T00:57:19.054Z,29.87
2018-12-17T00:59:46.474Z,30.07
2018-12-17T01:02:13.883Z,32.40
2018-12-17T01:04:41.291Z,32.13
2018-12-17T01:07:08.697Z,29.27
2018-12-17T01:09:36.099Z,29.18
2018-12-17T01:12:03.517Z,30.17
2018-12-17T01:14:30.906Z,30.80
2018-12-17T01:16:58.321Z,31.83
2018-12-17T01:19:26.418Z,30.13
2018-12-17T01:21:54.128Z,28.10
2018-12-17T01:24:21.539Z,29.43
2018-12-17T01:26:48.969Z,30.63
2018-12-17T01:29:16.372Z,32.40
2018-12-17T01:31:43.796Z,31.37
2018-12-17T01:34:11.241Z,29.70
2018-12-17T01:36:38.617Z,31.55
2018-12-17T01:39:06.251Z,30.50
2018-12-17T01:41:33.660Z,29.47
2018-12-17T01:44:01.063Z,31.30
2018-12-17T01:46:28.494Z,31.50
2018-12-17T01:48:55.890Z,31.47
2018-12-17T01:51:23.313Z,29.23
2018-12-17T01:53:50.718Z,31.80
2018-12-17T01:56:18.131Z,28.10
2018-12-17T01:58:45.648Z,30.17
2018-12-17T02:01:13.132Z,28.60
2018-12-17T02:03:41.633Z,31.37
2018-12-17T02:06:09.062Z,30.00
2018-12-17T02:08:36.557Z,32.53
2018-12-17T02:11:04.754Z,29.05
2018-12-17T02:13:32.177Z,30.20
2018-12-17T02:15:59.601Z,32.13
2018-12-17T02:18:27.000Z,31.97
2018-12-17T02:20:54.430Z,32.00
2018-12-17T02:23:21.836Z,33.18
2018-12-17T02:25:49.254Z,33.20
2018-12-17T02:28:16.659Z,31.40
2018-12-17T02:30:44.066Z,32.55
2018-12-17T02:33:11.460Z,31.77
2018-12-17T02:35:38.870Z,29.72
2018-12-17T02:38:06.265Z,29.90
2018-12-17T02:40:33.674Z,34.30
2018-12-17T02:43:01.083Z,33.85
2018-12-17T02:45:28.495Z,31.57
2018-12-17T02:47:55.978Z,31.70
2018-12-17T02:50:23.411Z,33.80
2018-12-17T02:52:50.810Z,32.37
2018-12-17T02:55:18.229Z,33.47
2018-12-17T02:57:45.625Z,33.00
2018-12-17T03:00:13.133Z,32.07
2018-12-17T03:02:40.526Z,31.67
2018-12-17T03:05:08.031Z,30.85
2018-12-17T03:07:35.439Z,28.87
2018-12-17T03:10:02.942Z,30.27
2018-12-17T03:12:30.338Z,30.00
2018-12-17T03:14:57.742Z,30.30
2018-12-17T03:17:25.153Z,30.77
2018-12-17T03:19:52.549Z,31.93
2018-12-17T03:22:19.953Z,30.53
2018-12-17T03:24:47.363Z,31.83
2018-12-17T03:27:14.769Z,33.60
2018-12-17T03:29:42.262Z,33.30
2018-12-17T03:32:09.672Z,31.43
2018-12-17T03:34:37.139Z,30.77
2018-12-17T03:37:04.564Z,31.83
2018-12-17T03:39:32.065Z,33.87
2018-12-17T03:41:59.501Z,30.87
2018-12-17T03:44:26.993Z,33.37
2018-12-17T03:46:54.404Z,30.27
2018-12-17T03:49:21.825Z,35.13
2018-12-17T03:51:49.235Z,31.23
2018-12-17T03:54:16.625Z,31.23
2018-12-17T03:56:44.050Z,33.80
2018-12-17T03:59:11.458Z,34.33
2018-12-17T04:01:38.849Z,30.07
2018-12-17T04:04:06.247Z,29.63
2018-12-17T04:06:33.650Z,28.87
2018-12-17T04:09:01.038Z,30.87
2018-12-17T04:11:28.427Z,33.90
2018-12-17T04:13:55.821Z,34.10
2018-12-17T04:16:23.236Z,31.70
2018-12-17T04:18:50.755Z,32.83
2018-12-17T04:21:18.182Z,33.93
2018-12-17T04:23:45.686Z,32.48
2018-12-17T04:26:13.163Z,29.90
2018-12-17T04:28:40.661Z,29.63
2018-12-17T04:31:08.050Z,30.85
2018-12-17T04:33:35.452Z,34.10
2018-12-17T04:36:02.859Z,31.27
2018-12-17T04:38:30.250Z,31.27
2018-12-17T04:40:57.694Z,32.75
2018-12-17T04:43:25.106Z,32.87
2018-12-17T04:45:52.510Z,34.87
2018-12-17T04:48:19.911Z,34.00
2018-12-17T04:50:47.374Z,33.33
2018-12-17T04:53:14.791Z,31.97
2018-12-17T04:55:42.218Z,34.25
2018-12-17T04:58:09.626Z,30.90
2018-12-17T05:00:37.044Z,34.80
2018-12-17T05:03:04.457Z,32.65
2018-12-17T05:05:31.966Z,35.43
2018-12-17T05:07:59.390Z,34.60
2018-12-17T05:10:26.797Z,40.43
2018-12-17T05:12:54.218Z,37.23
2018-12-17T05:15:21.623Z,33.20
2018-12-17T05:17:49.043Z,32.77
2018-12-17T05:20:16.439Z,35.47
2018-12-17T05:22:43.854Z,35.43
2018-12-17T05:25:11.276Z,37.10
2018-12-17T05:27:38.779Z,39.40
2018-12-17T05:30:06.579Z,35.77
2018-12-17T05:32:33.981Z,37.38
2018-12-17T05:35:01.473Z,37.00
2018-12-17T05:37:28.955Z,39.07
2018-12-17T05:39:56.357Z,34.80
2018-12-17T05:42:23.761Z,38.97
2018-12-17T05:44:51.170Z,39.30
2018-12-17T05:47:18.654Z,37.57
2018-12-17T05:49:46.048Z,38.08
2018-12-17T05:52:13.522Z,36.63
2018-12-17T05:54:40.923Z,39.37
2018-12-17T05:57:08.320Z,37.50
2018-12-17T05:59:35.721Z,39.00
2018-12-17T06:02:03.127Z,38.73
2018-12-17T06:04:30.550Z,36.13
2018-12-17T06:06:57.943Z,37.23
2018-12-17T06:09:25.519Z,38.60
2018-12-17T06:11:53.097Z,38.00
2018-12-17T06:14:20.497Z,38.37
2018-12-17T06:16:47.891Z,40.00
2018-12-17T06:19:15.300Z,41.00
2018-12-17T06:21:42.698Z,40.93
2018-12-17T06:24:10.101Z,41.50
2018-12-17T06:26:37.510Z,39.30
2018-12-17T06:29:04.907Z,38.80
2018-12-17T06:31:32.334Z,41.48
2018-12-17T06:33:59.744Z,41.88
2018-12-17T06:36:27.144Z,37.47
2018-12-17T06:38:54.543Z,38.90
2018-12-17T06:41:21.972Z,40.33
2018-12-17T06:43:49.365Z,39.26
2018-12-17T06:46:16.791Z,38.70
2018-12-17T06:48:44.185Z,42.30
2018-12-17T06:51:11.574Z,38.75
2018-12-17T06:53:39.683Z,38.47
2018-12-17T06:56:07.111Z,38.30
2018-12-17T06:58:34.506Z,38.30
2018-12-17T07:01:01.897Z,37.42
2018-12-17T07:03:29.307Z,40.17
2018-12-17T07:05:56.695Z,37.20
2018-12-17T07:08:24.097Z,38.67
2018-12-17T07:10:51.497Z,40.60
2018-12-17T07:13:18.908Z,39.50
2018-12-17T07:15:46.304Z,36.73
2018-12-17T07:18:13.706Z,37.13
2018-12-17T07:20:41.188Z,35.95
2018-12-17T07:23:08.582Z,36.90
2018-12-17T07:25:35.990Z,39.23
2018-12-17T07:28:03.388Z,33.73
2018-12-17T07:30:30.782Z,38.85
2018-12-17T07:32:58.187Z,35.58
2018-12-17T07:35:25.593Z,38.17
2018-12-17T07:37:53.015Z,37.55
2018-12-17T07:40:20.419Z,38.47
2018-12-17T07:42:47.814Z,35.97
2018-12-17T07:45:15.227Z,36.80
2018-12-17T07:47:42.644Z,35.30
2018-12-17T07:50:10.042Z,38.27
2018-12-17T07:52:37.436Z,39.77
2018-12-17T07:55:05.147Z,36.67
2018-12-17T07:57:32.553Z,38.73
2018-12-17T07:59:59.946Z,38.30
2018-12-17T08:02:27.360Z,37.63
2018-12-17T08:04:54.762Z,39.33
2018-12-17T08:07:22.163Z,35.43
2018-12-17T08:09:49.890Z,35.40
2018-12-17T08:12:17.289Z,37.10
2018-12-17T08:14:44.692Z,34.40
2018-12-17T08:17:12.222Z,39.93
2018-12-17T08:19:39.628Z,36.07
2018-12-17T08:22:07.111Z,35.77
2018-12-17T08:24:34.606Z,35.37
2018-12-17T08:27:02.007Z,30.57
2018-12-17T08:29:29.495Z,38.53
2018-12-17T08:31:56.916Z,36.70
2018-12-17T08:34:24.336Z,36.40
2018-12-17T08:36:51.739Z,33.40
2018-12-17T08:39:19.136Z,38.13
2018-12-17T08:41:46.550Z,35.40
2018-12-17T08:44:14.032Z,36.67
2018-12-17T08:46:41.528Z,36.80
2018-12-17T08:49:08.926Z,36.07
2018-12-17T08:51:36.561Z,34.87
2018-12-17T08:54:03.957Z,36.80
2018-12-17T08:56:31.452Z,34.30
2018-12-17T08:58:58.842Z,33.27
2018-12-17T09:01:26.241Z,34.83
2018-12-17T09:03:53.642Z,37.67
2018-12-17T09:06:21.039Z,35.00
2018-12-17T09:08:48.445Z,36.20
2018-12-17T09:11:15.845Z,36.80
2018-12-17T09:13:43.512Z,37.35
2018-12-17T09:16:10.903Z,35.83
2018-12-17T09:18:38.308Z,37.53
2018-12-17T09:21:05.706Z,36.57
2018-12-17T09:23:33.103Z,36.97
2018-12-17T09:26:00.521Z,36.43
2018-12-17T09:28:27.926Z,37.05
2018-12-17T09:30:55.327Z,37.07
2018-12-17T09:33:22.735Z,36.60
2018-12-17T09:35:50.147Z,39.40
2018-12-17T09:38:17.546Z,36.33
2018-12-17T09:40:44.960Z,39.20
2018-12-17T09:43:12.373Z,36.00
2018-12-17T09:45:39.788Z,38.57
2018-12-17T09:48:07.186Z,37.28
2018-12-17T09:50:34.598Z,37.27
2018-12-17T09:53:02.097Z,40.53
2018-12-17T09:55:29.502Z,38.43
2018-12-17T09:57:56.915Z,40.00
2018-12-17T10:00:25.604Z,40.38
2018-12-17T10:02:53.304Z,40.70
2018-12-17T10:05:20.705Z,37.33
2018-12-17T10:07:48.179Z,41.53
2018-12-17T10:10:15.572Z,40.52
2018-12-17T10:12:42.958Z,38.35
2018-12-17T10:15:10.361Z,39.00
2018-12-17T10:17:37.750Z,40.40
2018-12-17T10:20:05.548Z,37.63
2018-12-17T10:22:32.934Z,41.90
2018-12-17T10:25:00.320Z,38.47
2018-12-17T10:27:27.706Z,41.30
2018-12-17T10:29:55.097Z,37.90
2018-12-17T10:32:22.507Z,35.63
2018-12-17T10:34:49.915Z,39.70
2018-12-17T10:37:17.323Z,39.30
2018-12-17T10:39:44.715Z,40.03
2018-12-17T10:42:12.124Z,40.63
2018-12-17T10:44:39.518Z,38.30
2018-12-17T10:47:06.912Z,38.27
2018-12-17T10:49:34.402Z,39.63
2018-12-17T10:52:01.804Z,37.03
2018-12-17T10:54:29.203Z,41.47
2018-12-17T10:56:56.799Z,38.80
2018-12-17T10:59:24.213Z,41.00
2018-12-17T11:01:54.387Z,40.00
2018-12-17T11:04:23.681Z,36.57
2018-12-17T11:06:51.088Z,41.07
2018-12-17T11:09:18.486Z,40.23
2018-12-17T11:11:45.885Z,38.83
2018-12-17T11:14:13.270Z,39.33
2018-12-17T11:16:40.670Z,39.48
2018-12-17T11:19:08.057Z,39.23
2018-12-17T11:21:35.458Z,39.67
2018-12-17T11:24:02.932Z,39.67
2018-12-17T11:26:30.331Z,38.57
2018-12-17T11:28:57.738Z,41.83
2018-12-17T11:31:25.246Z,41.10
2018-12-17T11:33:52.640Z,38.57
2018-12-17T11:36:20.048Z,38.00
2018-12-17T11:38:47.453Z,40.50
2018-12-17T11:41:14.855Z,39.90
2018-12-17T11:43:43.918Z,39.48
2018-12-17T11:46:11.671Z,42.80
2018-12-17T11:48:39.662Z,42.47
2018-12-17T11:51:07.051Z,38.57
2018-12-17T11:53:34.454Z,36.07
2018-12-17T11:56:01.841Z,40.97
2018-12-17T11:58:29.241Z,38.77
2018-12-17T12:00:57.639Z,37.47
2018-12-17T12:03:25.038Z,38.63
2018-12-17T12:05:52.431Z,37.45
2018-12-17T12:08:19.830Z,38.70
2018-12-17T12:10:47.313Z,37.77
2018-12-17T12:13:14.711Z,38.60
2018-12-17T12:15:42.104Z,38.13
2018-12-17T12:18:09.507Z,41.63
2018-12-17T12:20:36.909Z,36.50
2018-12-17T12:23:04.337Z,37.00
2018-12-17T12:25:31.730Z,40.10
2018-12-17T12:27:59.126Z,37.63
2018-12-17T12:30:26.514Z,41.08
2018-12-17T12:32:53.914Z,38.75
2018-12-17T12:35:21.304Z,39.65
2018-12-17T12:37:48.701Z,40.67
2018-12-17T12:40:16.110Z,39.30
2018-12-17T12:42:43.504Z,40.83
2018-12-17T12:45:10.973Z,41.17
2018-12-17T12:47:38.365Z,36.13
2018-12-17T12:50:07.890Z,37.80
2018-12-17T12:52:35.278Z,37.47
2018-12-17T12:55:02.721Z,40.67
2018-12-17T12:57:30.111Z,31.70
2018-12-17T12:59:57.500Z,39.93
2018-12-17T13:02:24.906Z,34.77
2018-12-17T13:04:52.300Z,37.05
2018-12-17T13:07:19.688Z,42.25
2018-12-17T13:09:47.093Z,37.73
2018-12-17T13:12:14.502Z,40.43
2018-12-17T13:14:41.902Z,42.13
2018-12-17T13:17:30.074Z,36.30
2018-12-17T13:19:57.474Z,39.33
2018-12-17T13:22:24.865Z,34.97
2018-12-17T13:24:52.264Z,36.90
2018-12-17T13:27:19.671Z,36.70
2018-12-17T13:29:47.071Z,38.53
2018-12-17T13:32:14.470Z,38.77
2018-12-17T13:34:41.880Z,35.17
2018-12-17T13:37:09.354Z,33.97
2018-12-17T13:39:36.778Z,34.57
2018-12-17T13:42:04.182Z,34.90
2018-12-17T13:44:31.580Z,34.80
2018-12-17T13:46:58.973Z,36.73
2018-12-17T13:49:26.364Z,34.37
2018-12-17T13:51:59.309Z,35.83
2018-12-17T13:54:26.710Z,36.80
2018-12-17T13:56:54.092Z,37.53
2018-12-17T13:59:21.500Z,32.90
2018-12-17T14:01:51.662Z,36.30
2018-12-17T14:04:18.279Z,35.55
2018-12-17T14:06:45.689Z,39.03
2018-12-17T14:09:13.086Z,36.37
2018-12-17T14:11:40.477Z,38.27
2018-12-17T14:14:07.870Z,38.37
2018-12-17T14:16:40.968Z,37.90
2018-12-17T14:19:14.028Z,38.83
2018-12-17T14:21:47.140Z,41.28
2018-12-17T14:24:14.522Z,37.58
2018-12-17T14:26:41.989Z,37.90
2018-12-17T14:29:09.392Z,39.53
2018-12-17T14:31:36.786Z,35.50
2018-12-17T14:34:04.188Z,39.67
2018-12-17T14:36:31.596Z,37.30
2018-12-17T14:38:59.021Z,36.40
2018-12-17T14:41:26.488Z,37.80
2018-12-17T14:43:55.866Z,39.13
2018-12-17T14:46:23.255Z,39.23
2018-12-17T14:48:50.657Z,37.38
2018-12-17T14:51:18.065Z,40.47
2018-12-17T14:53:45.555Z,37.50
2018-12-17T14:56:12.951Z,42.25
2018-12-17T14:58:44.421Z,36.90
2018-12-17T15:01:09.770Z,35.90
2018-12-17T15:03:37.180Z,38.63
2018-12-17T15:06:04.561Z,36.30
2018-12-17T15:08:31.974Z,38.70
2018-12-17T15:10:59.361Z,37.30
2018-12-17T15:13:26.805Z,37.47
2018-12-17T15:15:54.195Z,41.28
2018-12-17T15:18:21.587Z,39.53
2018-12-17T15:20:48.986Z,36.17
2018-12-17T15:23:16.386Z,36.77
2018-12-17T15:25:43.865Z,35.35
2018-12-17T15:28:11.275Z,39.00
2018-12-17T15:30:38.674Z,38.60
2018-12-17T15:33:06.054Z,38.37
2018-12-17T15:35:33.445Z,39.70
2018-12-17T15:38:00.834Z,37.10
2018-12-17T15:40:28.239Z,38.20
2018-12-17T15:42:55.698Z,33.83
2018-12-17T15:45:23.100Z,35.63
2018-12-17T15:47:50.584Z,35.53
2018-12-17T15:50:17.970Z,41.08
2018-12-17T15:52:45.378Z,39.03
2018-12-17T15:55:12.784Z,34.50
2018-12-17T15:57:40.239Z,41.60
2018-12-17T16:00:09.242Z,35.00
2018-12-17T16:02:36.721Z,41.08
2018-12-17T16:05:05.530Z,35.23
2018-12-17T16:07:33.017Z,38.50
2018-12-17T16:10:00.418Z,40.57
2018-12-17T16:12:27.920Z,35.40
2018-12-17T16:14:55.308Z,42.20
2018-12-17T16:17:22.729Z,38.70
2018-12-17T16:19:50.133Z,42.10
2018-12-17T16:22:17.534Z,38.23
2018-12-17T16:24:44.926Z,38.43
2018-12-17T16:27:19.029Z,37.90
2018-12-17T16:29:41.691Z,39.83
2018-12-17T16:32:09.549Z,32.78
2018-12-17T16:34:36.948Z,38.40
2018-12-17T16:37:04.541Z,36.05
2018-12-17T16:39:31.939Z,39.45
2018-12-17T16:41:59.335Z,38.92
2018-12-17T16:44:26.731Z,39.40
2018-12-17T16:46:54.199Z,40.23
2018-12-17T16:49:21.604Z,37.25
2018-12-17T16:51:48.990Z,39.80
2018-12-17T16:54:16.388Z,36.43
2018-12-17T16:56:43.782Z,38.53
2018-12-17T16:59:11.174Z,38.90
2018-12-17T17:01:38.563Z,38.70
2018-12-17T17:04:05.969Z,39.30
2018-12-17T17:06:33.363Z,37.50
2018-12-17T17:09:00.751Z,41.57
2018-12-17T17:11:28.142Z,37.97
2018-12-17T17:13:55.535Z,39.00
2018-12-17T17:16:22.926Z,39.00
2018-12-17T17:18:50.312Z,39.03
2018-12-17T17:21:17.707Z,36.37
2018-12-17T17:23:45.126Z,41.63
2018-12-17T17:26:12.522Z,40.03
2018-12-17T17:28:39.913Z,43.50
2018-12-17T17:31:07.348Z,40.37
2018-12-17T17:33:34.732Z,39.70
2018-12-17T17:36:02.235Z,41.13
2018-12-17T17:38:29.655Z,43.80
2018-12-17T17:40:57.042Z,41.75
2018-12-17T17:43:24.447Z,40.57
2018-12-17T17:45:51.839Z,38.60
2018-12-17T17:48:19.321Z,40.17
2018-12-17T17:50:46.808Z,40.47
2018-12-17T17:53:14.202Z,39.30
2018-12-17T17:55:41.606Z,40.30
2018-12-17T17:58:09.014Z,39.50
2018-12-17T18:00:36.413Z,41.47
2018-12-17T18:03:04.718Z,39.83
2018-12-17T18:05:32.124Z,39.90
2018-12-17T18:07:59.575Z,38.97
2018-12-17T18:10:26.990Z,39.40
2018-12-17T18:12:54.373Z,39.80
2018-12-17T18:15:22.170Z,42.37
2018-12-17T18:17:49.605Z,39.73
2018-12-17T18:20:16.989Z,43.03
2018-12-17T18:22:44.377Z,39.23
2018-12-17T18:25:11.769Z,41.87
2018-12-17T18:27:39.153Z,40.73
2018-12-17T18:30:06.683Z,37.23
2018-12-17T18:32:34.080Z,38.43
2018-12-17T18:35:01.474Z,40.90
2018-12-17T18:37:28.949Z,39.10
2018-12-17T18:39:56.523Z,37.30
2018-12-17T18:42:23.958Z,38.93
2018-12-17T18:44:51.369Z,36.77
2018-12-17T18:47:25.439Z,39.80
2018-12-17T18:49:48.128Z,41.95
2018-12-17T18:52:16.333Z,38.47
2018-12-17T18:54:43.724Z,37.55
2018-12-17T18:57:11.156Z,40.40
2018-12-17T18:59:38.554Z,41.33
2018-12-17T19:02:06.955Z,38.78
2018-12-17T19:04:34.351Z,41.10
2018-12-17T19:07:01.752Z,40.48
2018-12-17T19:09:29.299Z,40.00
2018-12-17T19:11:56.726Z,38.25
2018-12-17T19:14:24.115Z,38.40
2018-12-17T19:16:51.535Z,39.50
2018-12-17T19:19:19.018Z,39.18
2018-12-17T19:21:46.419Z,38.63
2018-12-17T19:24:13.818Z,39.50
2018-12-17T19:26:41.210Z,40.75
2018-12-17T19:29:08.622Z,39.00
2018-12-17T19:31:36.048Z,39.77
2018-12-17T19:34:03.445Z,35.87
2018-12-17T19:36:30.831Z,41.23
2018-12-17T19:38:58.311Z,42.80
2018-12-17T19:41:25.705Z,39.80
2018-12-17T19:43:53.094Z,40.17
2018-12-17T19:46:20.509Z,42.37
2018-12-17T19:48:47.917Z,42.30
2018-12-17T19:51:15.490Z,38.40
2018-12-17T19:53:43.419Z,37.90
2018-12-17T19:56:10.814Z,39.87
2018-12-17T19:58:38.217Z,39.70
2018-12-17T20:01:05.785Z,38.98
2018-12-17T20:03:33.172Z,40.43
2018-12-17T20:06:00.643Z,38.17
2018-12-17T20:08:28.166Z,38.88
2018-12-17T20:10:55.556Z,38.90
2018-12-17T20:13:22.950Z,38.27
2018-12-17T20:15:50.325Z,40.70
2018-12-17T20:18:17.733Z,37.07
2018-12-17T20:20:45.149Z,37.43
2018-12-17T20:23:12.542Z,40.43
2018-12-17T20:25:39.934Z,40.13
2018-12-17T20:28:07.325Z,38.47
2018-12-17T20:30:34.704Z,37.53
2018-12-17T20:33:02.086Z,36.45
2018-12-17T20:35:29.569Z,35.97
2018-12-17T20:37:57.016Z,34.10
2018-12-17T20:40:24.450Z,35.20
2018-12-17T20:42:51.826Z,32.70
2018-12-17T20:45:19.319Z,34.57
2018-12-17T20:47:46.722Z,37.90
2018-12-17T20:50:14.240Z,33.17
2018-12-17T20:52:41.694Z,35.63
2018-12-17T20:55:09.094Z,35.40
2018-12-17T20:57:36.487Z,34.50
2018-12-17T21:00:06.067Z,33.40
2018-12-17T21:02:33.460Z,35.40
2018-12-17T21:05:00.865Z,36.93
2018-12-17T21:07:28.279Z,34.77
2018-12-17T21:09:55.672Z,34.80
2018-12-17T21:12:23.080Z,36.20
2018-12-17T21:14:50.458Z,37.50
2018-12-17T21:17:17.850Z,38.90
2018-12-17T21:19:45.256Z,40.05
2018-12-17T21:22:12.646Z,36.83
2018-12-17T21:24:40.037Z,34.30
2018-12-17T21:27:07.428Z,39.20
2018-12-17T21:29:34.818Z,41.85
2018-12-17T21:32:02.207Z,38.40
2018-12-17T21:34:29.618Z,38.37
2018-12-17T21:36:57.008Z,41.18
2018-12-17T21:39:24.408Z,38.83
2018-12-17T21:41:51.802Z,41.20
2018-12-17T21:44:19.190Z,42.30
2018-12-17T21:46:46.606Z,42.48
2018-12-17T21:49:14.011Z,40.08
2018-12-17T21:51:41.382Z,36.10
2018-12-17T21:54:08.794Z,37.63
2018-12-17T21:56:36.175Z,38.30
2018-12-17T21:59:03.562Z,38.88
2018-12-17T22:01:30.959Z,40.30
2018-12-17T22:03:58.369Z,39.77
2018-12-17T22:06:25.752Z,41.27
2018-12-17T22:08:53.142Z,41.90
2018-12-17T22:11:20.555Z,39.37
2018-12-17T22:13:47.961Z,40.30
2018-12-17T22:16:15.430Z,40.30
2018-12-17T22:18:42.826Z,43.68
2018-12-17T22:21:10.206Z,44.13
2018-12-17T22:23:37.621Z,41.37
2018-12-17T22:26:05.009Z,40.57
2018-12-17T22:28:32.417Z,37.98
2018-12-17T22:30:59.809Z,42.90
2018-12-17T22:33:27.210Z,39.27
2018-12-17T22:35:54.609Z,40.17
2018-12-17T22:38:22.033Z,40.77
2018-12-17T22:40:49.429Z,41.07
2018-12-17T22:43:16.821Z,42.30
2018-12-17T22:45:44.314Z,43.83
2018-12-17T22:48:11.700Z,42.87
2018-12-17T22:50:39.100Z,42.27
2018-12-17T22:53:06.501Z,44.75
2018-12-17T22:55:33.894Z,46.47
2018-12-17T22:58:01.323Z,43.07
2018-12-17T23:00:28.730Z,41.18
2018-12-17T23:02:56.122Z,45.07
2018-12-17T23:05:23.514Z,41.50
2018-12-17T23:07:50.943Z,44.50
2018-12-17T23:10:32.037Z,42.75
2018-12-17T23:13:11.329Z,45.50
2018-12-17T23:15:50.754Z,42.67
2018-12-17T23:18:17.686Z,45.00
2018-12-17T23:20:45.081Z,46.10
2018-12-17T23:23:12.481Z,46.87
2018-12-17T23:25:39.871Z,45.12
2018-12-17T23:28:08.183Z,42.62
2018-12-17T23:30:35.596Z,44.42
2018-12-17T23:33:02.987Z,44.48
2018-12-17T23:35:30.389Z,48.00
2018-12-17T23:37:57.790Z,46.75
2018-12-17T23:40:25.185Z,44.05
2018-12-17T23:42:52.592Z,46.58
2018-12-17T23:45:20.088Z,50.30
2018-12-17T23:47:47.892Z,47.08
2018-12-17T23:50:15.302Z,47.87
2018-12-17T23:52:42.691Z,49.03
2018-12-17T23:55:10.081Z,47.53
2018-12-17T23:57:37.474Z,46.63
